sensor_id;sensor_type;location;lat;lon;timestamp;P1;durP1;ratioP1;P2;durP2;ratioP2
39750;SDS011;37579;51.074;17.004;2023-12-07T00:01:38;13.05;;;9.77;;
39750;SDS011;37579;51.074;17.004;2023-12-07T00:04:04;13.82;;;9.55;;
39750;SDS011;37579;51.074;17.004;2023-12-07T00:06:30;14.77;;;10.60;;
39750;SDS011;37579;51.074;17.004;2023-12-07T00:08:55;13.68;;;9.68;;
39750;SDS011;37579;51.074;17.004;2023-12-07T00:11:23;12.68;;;9.50;;
39750;SDS011;37579;51.074;17.004;2023-12-07T00:13:49;12.50;;;9.48;;
39750;SDS011;37579;51.074;17.004;2023-12-07T00:16:15;14.98;;;9.40;;
39750;SDS011;37579;51.074;17.004;2023-12-07T00:18:40;16.00;;;9.57;;
39750;SDS011;37579;51.074;17.004;2023-12-07T00:21:09;14.00;;;9.52;;
39750;SDS011;37579;51.074;17.004;2023-12-07T00:23:36;13.98;;;10.02;;
39750;SDS011;37579;51.074;17.004;2023-12-07T00:26:03;14.10;;;10.23;;
39750;SDS011;37579;51.074;17.004;2023-12-07T00:28:29;14.48;;;9.52;;
39750;SDS011;37579;51.074;17.004;2023-12-07T00:30:55;13.20;;;9.38;;
39750;SDS011;37579;51.074;17.004;2023-12-07T00:33:21;12.95;;;9.85;;
39750;SDS011;37579;51.074;17.004;2023-12-07T00:35:47;14.43;;;10.07;;
39750;SDS011;37579;51.074;17.004;2023-12-07T00:38:13;13.73;;;9.98;;
39750;SDS011;37579;51.074;17.004;2023-12-07T00:40:39;13.02;;;9.13;;
39750;SDS011;37579;51.074;17.004;2023-12-07T00:43:05;14.30;;;9.52;;
39750;SDS011;37579;51.074;17.004;2023-12-07T00:45:35;15.63;;;10.85;;
39750;SDS011;37579;51.074;17.004;2023-12-07T00:48:00;13.93;;;9.68;;
39750;SDS011;37579;51.074;17.004;2023-12-07T00:50:26;13.57;;;9.57;;
39750;SDS011;37579;51.074;17.004;2023-12-07T00:52:52;15.23;;;10.70;;
39750;SDS011;37579;51.074;17.004;2023-12-07T00:55:17;14.27;;;10.18;;
39750;SDS011;37579;51.074;17.004;2023-12-07T00:57:43;14.60;;;9.90;;
39750;SDS011;37579;51.074;17.004;2023-12-07T01:00:09;15.60;;;9.82;;
39750;SDS011;37579;51.074;17.004;2023-12-07T01:02:38;13.82;;;9.98;;
39750;SDS011;37579;51.074;17.004;2023-12-07T01:05:04;13.70;;;10.65;;
39750;SDS011;37579;51.074;17.004;2023-12-07T01:07:30;15.27;;;10.35;;
39750;SDS011;37579;51.074;17.004;2023-12-07T01:09:56;15.05;;;10.50;;
39750;SDS011;37579;51.074;17.004;2023-12-07T01:12:22;13.20;;;9.48;;
39750;SDS011;37579;51.074;17.004;2023-12-07T01:14:48;14.27;;;10.23;;
39750;SDS011;37579;51.074;17.004;2023-12-07T01:17:13;15.30;;;10.70;;
39750;SDS011;37579;51.074;17.004;2023-12-07T01:19:39;14.43;;;10.65;;
39750;SDS011;37579;51.074;17.004;2023-12-07T01:22:05;15.13;;;10.57;;
39750;SDS011;37579;51.074;17.004;2023-12-07T01:24:31;15.02;;;10.73;;
39750;SDS011;37579;51.074;17.004;2023-12-07T01:26:57;12.98;;;9.88;;
39750;SDS011;37579;51.074;17.004;2023-12-07T01:29:23;12.57;;;9.63;;
39750;SDS011;37579;51.074;17.004;2023-12-07T01:31:49;13.88;;;9.77;;
39750;SDS011;37579;51.074;17.004;2023-12-07T01:34:16;13.38;;;10.18;;
39750;SDS011;37579;51.074;17.004;2023-12-07T01:36:43;14.07;;;10.15;;
39750;SDS011;37579;51.074;17.004;2023-12-07T01:39:09;13.63;;;10.25;;
39750;SDS011;37579;51.074;17.004;2023-12-07T01:41:38;13.00;;;10.05;;
39750;SDS011;37579;51.074;17.004;2023-12-07T01:44:04;12.95;;;9.93;;
39750;SDS011;37579;51.074;17.004;2023-12-07T01:46:30;14.85;;;11.27;;
39750;SDS011;37579;51.074;17.004;2023-12-07T01:48:56;15.82;;;11.25;;
39750;SDS011;37579;51.074;17.004;2023-12-07T01:51:22;13.45;;;9.65;;
39750;SDS011;37579;51.074;17.004;2023-12-07T01:53:48;13.23;;;10.00;;
39750;SDS011;37579;51.074;17.004;2023-12-07T01:56:15;14.32;;;10.30;;
39750;SDS011;37579;51.074;17.004;2023-12-07T01:58:41;15.00;;;10.35;;
39750;SDS011;37579;51.074;17.004;2023-12-07T02:01:08;13.10;;;10.00;;
39750;SDS011;37579;51.074;17.004;2023-12-07T02:03:37;15.02;;;10.18;;
39750;SDS011;37579;51.074;17.004;2023-12-07T02:06:06;13.50;;;10.27;;
39750;SDS011;37579;51.074;17.004;2023-12-07T02:08:34;14.52;;;10.30;;
39750;SDS011;37579;51.074;17.004;2023-12-07T02:11:00;12.45;;;10.20;;
39750;SDS011;37579;51.074;17.004;2023-12-07T02:13:26;15.07;;;10.68;;
39750;SDS011;37579;51.074;17.004;2023-12-07T02:15:52;14.35;;;10.23;;
39750;SDS011;37579;51.074;17.004;2023-12-07T02:20:54;13.20;;;10.15;;
39750;SDS011;37579;51.074;17.004;2023-12-07T02:23:28;14.80;;;10.38;;
39750;SDS011;37579;51.074;17.004;2023-12-07T02:25:54;12.60;;;10.30;;
39750;SDS011;37579;51.074;17.004;2023-12-07T02:28:27;14.15;;;10.13;;
39750;SDS011;37579;51.074;17.004;2023-12-07T02:30:53;12.32;;;9.30;;
39750;SDS011;37579;51.074;17.004;2023-12-07T02:33:18;14.00;;;10.27;;
39750;SDS011;37579;51.074;17.004;2023-12-07T02:35:44;12.68;;;9.38;;
39750;SDS011;37579;51.074;17.004;2023-12-07T02:38:10;13.18;;;10.70;;
39750;SDS011;37579;51.074;17.004;2023-12-07T02:40:37;14.88;;;10.70;;
39750;SDS011;37579;51.074;17.004;2023-12-07T02:43:05;13.40;;;9.93;;
39750;SDS011;37579;51.074;17.004;2023-12-07T02:45:33;12.93;;;10.40;;
39750;SDS011;37579;51.074;17.004;2023-12-07T02:47:59;17.05;;;11.38;;
39750;SDS011;37579;51.074;17.004;2023-12-07T02:50:25;14.45;;;9.98;;
39750;SDS011;37579;51.074;17.004;2023-12-07T02:52:50;14.13;;;10.25;;
39750;SDS011;37579;51.074;17.004;2023-12-07T02:55:16;15.32;;;10.30;;
39750;SDS011;37579;51.074;17.004;2023-12-07T02:57:42;13.40;;;9.93;;
39750;SDS011;37579;51.074;17.004;2023-12-07T03:00:08;15.10;;;11.02;;
39750;SDS011;37579;51.074;17.004;2023-12-07T03:02:37;13.93;;;10.52;;
39750;SDS011;37579;51.074;17.004;2023-12-07T03:05:04;14.90;;;10.25;;
39750;SDS011;37579;51.074;17.004;2023-12-07T03:07:31;14.73;;;10.93;;
39750;SDS011;37579;51.074;17.004;2023-12-07T03:09:58;14.93;;;10.60;;
39750;SDS011;37579;51.074;17.004;2023-12-07T03:12:23;11.88;;;9.75;;
39750;SDS011;37579;51.074;17.004;2023-12-07T03:14:49;14.48;;;10.70;;
39750;SDS011;37579;51.074;17.004;2023-12-07T03:17:15;14.90;;;11.05;;
39750;SDS011;37579;51.074;17.004;2023-12-07T03:19:41;14.32;;;10.40;;
39750;SDS011;37579;51.074;17.004;2023-12-07T03:22:07;15.02;;;10.27;;
39750;SDS011;37579;51.074;17.004;2023-12-07T03:24:37;15.52;;;10.30;;
39750;SDS011;37579;51.074;17.004;2023-12-07T03:27:03;14.45;;;10.77;;
39750;SDS011;37579;51.074;17.004;2023-12-07T03:29:30;12.77;;;9.65;;
39750;SDS011;37579;51.074;17.004;2023-12-07T03:31:56;15.02;;;10.45;;
39750;SDS011;37579;51.074;17.004;2023-12-07T03:34:23;15.43;;;10.68;;
39750;SDS011;37579;51.074;17.004;2023-12-07T03:36:49;15.13;;;10.20;;
39750;SDS011;37579;51.074;17.004;2023-12-07T03:39:15;13.00;;;10.07;;
39750;SDS011;37579;51.074;17.004;2023-12-07T03:41:44;15.18;;;10.43;;
39750;SDS011;37579;51.074;17.004;2023-12-07T03:44:10;14.55;;;10.85;;
39750;SDS011;37579;51.074;17.004;2023-12-07T03:46:36;13.23;;;9.85;;
39750;SDS011;37579;51.074;17.004;2023-12-07T03:49:01;14.32;;;10.48;;
39750;SDS011;37579;51.074;17.004;2023-12-07T03:51:27;12.57;;;9.68;;
39750;SDS011;37579;51.074;17.004;2023-12-07T03:53:54;15.65;;;10.50;;
39750;SDS011;37579;51.074;17.004;2023-12-07T03:56:24;13.85;;;10.18;;
39750;SDS011;37579;51.074;17.004;2023-12-07T03:58:54;13.32;;;10.27;;
39750;SDS011;37579;51.074;17.004;2023-12-07T04:01:23;13.18;;;10.00;;
39750;SDS011;37579;51.074;17.004;2023-12-07T04:03:50;12.90;;;10.30;;
39750;SDS011;37579;51.074;17.004;2023-12-07T04:06:16;14.30;;;10.15;;
39750;SDS011;37579;51.074;17.004;2023-12-07T04:08:43;12.77;;;10.07;;
39750;SDS011;37579;51.074;17.004;2023-12-07T04:11:10;14.30;;;10.60;;
39750;SDS011;37579;51.074;17.004;2023-12-07T04:13:36;14.38;;;10.18;;
39750;SDS011;37579;51.074;17.004;2023-12-07T04:16:01;13.60;;;10.48;;
39750;SDS011;37579;51.074;17.004;2023-12-07T04:18:28;14.75;;;10.60;;
39750;SDS011;37579;51.074;17.004;2023-12-07T04:20:54;15.23;;;11.07;;
39750;SDS011;37579;51.074;17.004;2023-12-07T04:23:20;13.80;;;10.35;;
39750;SDS011;37579;51.074;17.004;2023-12-07T04:25:46;13.43;;;10.45;;
39750;SDS011;37579;51.074;17.004;2023-12-07T04:28:12;14.65;;;10.77;;
39750;SDS011;37579;51.074;17.004;2023-12-07T04:30:37;13.27;;;10.18;;
39750;SDS011;37579;51.074;17.004;2023-12-07T04:33:03;12.93;;;10.60;;
39750;SDS011;37579;51.074;17.004;2023-12-07T04:35:30;15.68;;;11.70;;
39750;SDS011;37579;51.074;17.004;2023-12-07T04:37:55;14.13;;;10.93;;
39750;SDS011;37579;51.074;17.004;2023-12-07T04:40:21;14.23;;;10.10;;
39750;SDS011;37579;51.074;17.004;2023-12-07T04:42:49;14.07;;;10.80;;
39750;SDS011;37579;51.074;17.004;2023-12-07T04:45:15;14.48;;;10.65;;
39750;SDS011;37579;51.074;17.004;2023-12-07T04:47:41;14.80;;;10.82;;
39750;SDS011;37579;51.074;17.004;2023-12-07T04:50:07;12.07;;;9.82;;
39750;SDS011;37579;51.074;17.004;2023-12-07T04:52:33;12.88;;;9.85;;
39750;SDS011;37579;51.074;17.004;2023-12-07T04:55:00;14.45;;;10.80;;
39750;SDS011;37579;51.074;17.004;2023-12-07T04:57:26;14.00;;;10.32;;
39750;SDS011;37579;51.074;17.004;2023-12-07T04:59:52;12.57;;;9.80;;
39750;SDS011;37579;51.074;17.004;2023-12-07T05:02:18;13.52;;;10.05;;
39750;SDS011;37579;51.074;17.004;2023-12-07T05:04:44;14.07;;;10.65;;
39750;SDS011;37579;51.074;17.004;2023-12-07T05:07:13;14.27;;;10.95;;
39750;SDS011;37579;51.074;17.004;2023-12-07T05:09:40;14.90;;;10.73;;
39750;SDS011;37579;51.074;17.004;2023-12-07T05:12:06;13.95;;;10.57;;
39750;SDS011;37579;51.074;17.004;2023-12-07T05:14:33;12.45;;;9.55;;
39750;SDS011;37579;51.074;17.004;2023-12-07T05:17:00;15.18;;;10.88;;
39750;SDS011;37579;51.074;17.004;2023-12-07T05:19:26;13.13;;;10.52;;
39750;SDS011;37579;51.074;17.004;2023-12-07T05:21:52;14.27;;;10.23;;
39750;SDS011;37579;51.074;17.004;2023-12-07T05:24:17;13.65;;;9.48;;
39750;SDS011;37579;51.074;17.004;2023-12-07T05:26:44;12.60;;;10.00;;
39750;SDS011;37579;51.074;17.004;2023-12-07T05:29:14;15.38;;;11.38;;
39750;SDS011;37579;51.074;17.004;2023-12-07T05:31:40;15.90;;;11.82;;
39750;SDS011;37579;51.074;17.004;2023-12-07T05:34:06;16.17;;;12.07;;
39750;SDS011;37579;51.074;17.004;2023-12-07T05:36:32;17.75;;;12.40;;
39750;SDS011;37579;51.074;17.004;2023-12-07T05:38:58;15.90;;;12.23;;
39750;SDS011;37579;51.074;17.004;2023-12-07T05:41:24;19.27;;;12.98;;
39750;SDS011;37579;51.074;17.004;2023-12-07T05:43:50;16.77;;;12.13;;
39750;SDS011;37579;51.074;17.004;2023-12-07T05:46:17;18.40;;;11.95;;
39750;SDS011;37579;51.074;17.004;2023-12-07T05:48:44;19.27;;;12.48;;
39750;SDS011;37579;51.074;17.004;2023-12-07T05:51:13;18.52;;;11.95;;
39750;SDS011;37579;51.074;17.004;2023-12-07T05:53:42;17.27;;;11.77;;
39750;SDS011;37579;51.074;17.004;2023-12-07T05:56:09;18.70;;;11.80;;
39750;SDS011;37579;51.074;17.004;2023-12-07T05:58:36;23.45;;;11.98;;
39750;SDS011;37579;51.074;17.004;2023-12-07T06:01:02;16.30;;;12.07;;
39750;SDS011;37579;51.074;17.004;2023-12-07T06:03:28;17.58;;;11.35;;
39750;SDS011;37579;51.074;17.004;2023-12-07T06:05:54;15.88;;;11.55;;
39750;SDS011;37579;51.074;17.004;2023-12-07T06:08:21;19.65;;;11.98;;
39750;SDS011;37579;51.074;17.004;2023-12-07T06:10:50;19.48;;;12.63;;
39750;SDS011;37579;51.074;17.004;2023-12-07T06:13:15;19.02;;;12.18;;
39750;SDS011;37579;51.074;17.004;2023-12-07T06:15:41;18.38;;;12.20;;
39750;SDS011;37579;51.074;17.004;2023-12-07T06:18:07;18.90;;;12.90;;
39750;SDS011;37579;51.074;17.004;2023-12-07T06:20:33;18.20;;;12.98;;
39750;SDS011;37579;51.074;17.004;2023-12-07T06:23:00;18.45;;;13.02;;
39750;SDS011;37579;51.074;17.004;2023-12-07T06:25:27;18.85;;;13.05;;
39750;SDS011;37579;51.074;17.004;2023-12-07T06:27:53;20.52;;;13.80;;
39750;SDS011;37579;51.074;17.004;2023-12-07T06:30:18;24.13;;;13.80;;
39750;SDS011;37579;51.074;17.004;2023-12-07T06:32:44;23.00;;;14.75;;
39750;SDS011;37579;51.074;17.004;2023-12-07T06:35:13;22.20;;;14.02;;
39750;SDS011;37579;51.074;17.004;2023-12-07T06:37:39;20.13;;;13.73;;
39750;SDS011;37579;51.074;17.004;2023-12-07T06:40:07;23.33;;;14.18;;
39750;SDS011;37579;51.074;17.004;2023-12-07T06:42:36;21.38;;;13.75;;
39750;SDS011;37579;51.074;17.004;2023-12-07T06:45:03;21.25;;;13.52;;
39750;SDS011;37579;51.074;17.004;2023-12-07T06:47:29;20.60;;;14.07;;
39750;SDS011;37579;51.074;17.004;2023-12-07T06:49:55;19.83;;;13.43;;
39750;SDS011;37579;51.074;17.004;2023-12-07T06:52:21;19.00;;;12.80;;
39750;SDS011;37579;51.074;17.004;2023-12-07T06:54:47;19.70;;;13.30;;
39750;SDS011;37579;51.074;17.004;2023-12-07T06:57:13;20.17;;;13.25;;
39750;SDS011;37579;51.074;17.004;2023-12-07T06:59:39;19.13;;;12.10;;
39750;SDS011;37579;51.074;17.004;2023-12-07T07:02:06;18.33;;;12.60;;
39750;SDS011;37579;51.074;17.004;2023-12-07T07:04:32;18.63;;;12.73;;
39750;SDS011;37579;51.074;17.004;2023-12-07T07:06:57;18.00;;;12.10;;
39750;SDS011;37579;51.074;17.004;2023-12-07T07:09:23;18.27;;;12.02;;
39750;SDS011;37579;51.074;17.004;2023-12-07T07:11:50;15.75;;;11.55;;
39750;SDS011;37579;51.074;17.004;2023-12-07T07:14:16;15.88;;;11.40;;
39750;SDS011;37579;51.074;17.004;2023-12-07T07:16:42;18.02;;;11.73;;
39750;SDS011;37579;51.074;17.004;2023-12-07T07:19:07;17.23;;;12.05;;
39750;SDS011;37579;51.074;17.004;2023-12-07T07:21:33;18.15;;;11.52;;
39750;SDS011;37579;51.074;17.004;2023-12-07T07:23:59;19.27;;;11.98;;
39750;SDS011;37579;51.074;17.004;2023-12-07T07:26:25;18.33;;;11.73;;
39750;SDS011;37579;51.074;17.004;2023-12-07T07:28:52;17.13;;;11.20;;
39750;SDS011;37579;51.074;17.004;2023-12-07T07:31:17;18.60;;;11.68;;
39750;SDS011;37579;51.074;17.004;2023-12-07T07:33:44;15.20;;;11.07;;
39750;SDS011;37579;51.074;17.004;2023-12-07T07:36:12;15.82;;;10.88;;
39750;SDS011;37579;51.074;17.004;2023-12-07T07:38:40;18.13;;;11.68;;
39750;SDS011;37579;51.074;17.004;2023-12-07T07:41:06;17.95;;;11.07;;
39750;SDS011;37579;51.074;17.004;2023-12-07T07:43:31;15.27;;;10.60;;
39750;SDS011;37579;51.074;17.004;2023-12-07T07:45:59;22.35;;;12.55;;
39750;SDS011;37579;51.074;17.004;2023-12-07T07:48:25;24.65;;;13.50;;
39750;SDS011;37579;51.074;17.004;2023-12-07T07:50:51;22.70;;;13.55;;
39750;SDS011;37579;51.074;17.004;2023-12-07T07:53:17;23.10;;;13.70;;
39750;SDS011;37579;51.074;17.004;2023-12-07T07:55:43;21.75;;;13.10;;
39750;SDS011;37579;51.074;17.004;2023-12-07T07:58:08;27.17;;;13.52;;
39750;SDS011;37579;51.074;17.004;2023-12-07T08:00:34;20.98;;;13.00;;
39750;SDS011;37579;51.074;17.004;2023-12-07T08:03:00;20.20;;;13.18;;
39750;SDS011;37579;51.074;17.004;2023-12-07T08:05:26;18.30;;;11.48;;
39750;SDS011;37579;51.074;17.004;2023-12-07T08:07:51;19.23;;;12.18;;
39750;SDS011;37579;51.074;17.004;2023-12-07T08:10:17;21.10;;;12.45;;
39750;SDS011;37579;51.074;17.004;2023-12-07T08:12:43;19.23;;;12.27;;
39750;SDS011;37579;51.074;17.004;2023-12-07T08:15:12;95.35;;;36.08;;
39750;SDS011;37579;51.074;17.004;2023-12-07T08:17:39;122.25;;;43.53;;
39750;SDS011;37579;51.074;17.004;2023-12-07T08:20:09;141.63;;;48.60;;
39750;SDS011;37579;51.074;17.004;2023-12-07T08:22:40;140.85;;;50.10;;
39750;SDS011;37579;51.074;17.004;2023-12-07T08:25:09;150.48;;;50.78;;
39750;SDS011;37579;51.074;17.004;2023-12-07T08:27:36;141.95;;;49.78;;
39750;SDS011;37579;51.074;17.004;2023-12-07T08:30:04;139.35;;;48.60;;
39750;SDS011;37579;51.074;17.004;2023-12-07T08:32:30;130.23;;;49.25;;
39750;SDS011;37579;51.074;17.004;2023-12-07T08:34:56;133.63;;;47.30;;
39750;SDS011;37579;51.074;17.004;2023-12-07T08:37:22;130.60;;;47.67;;
39750;SDS011;37579;51.074;17.004;2023-12-07T08:39:48;121.40;;;45.28;;
39750;SDS011;37579;51.074;17.004;2023-12-07T08:42:14;121.70;;;44.95;;
39750;SDS011;37579;51.074;17.004;2023-12-07T08:44:40;122.85;;;45.50;;
39750;SDS011;37579;51.074;17.004;2023-12-07T08:47:06;114.95;;;42.63;;
39750;SDS011;37579;51.074;17.004;2023-12-07T08:49:32;112.25;;;42.75;;
39750;SDS011;37579;51.074;17.004;2023-12-07T08:51:58;108.30;;;42.47;;
39750;SDS011;37579;51.074;17.004;2023-12-07T08:54:23;99.38;;;40.10;;
39750;SDS011;37579;51.074;17.004;2023-12-07T08:56:49;110.07;;;40.67;;
39750;SDS011;37579;51.074;17.004;2023-12-07T08:59:15;104.35;;;40.03;;
39750;SDS011;37579;51.074;17.004;2023-12-07T09:01:41;97.05;;;38.42;;
39750;SDS011;37579;51.074;17.004;2023-12-07T09:04:07;96.35;;;38.70;;
39750;SDS011;37579;51.074;17.004;2023-12-07T09:06:33;99.00;;;40.50;;
39750;SDS011;37579;51.074;17.004;2023-12-07T09:08:59;91.50;;;37.00;;
39750;SDS011;37579;51.074;17.004;2023-12-07T09:11:25;89.03;;;35.05;;
39750;SDS011;37579;51.074;17.004;2023-12-07T09:13:51;85.15;;;36.00;;
39750;SDS011;37579;51.074;17.004;2023-12-07T09:16:16;80.07;;;34.30;;
39750;SDS011;37579;51.074;17.004;2023-12-07T09:18:42;83.80;;;33.53;;
39750;SDS011;37579;51.074;17.004;2023-12-07T09:21:10;73.35;;;31.63;;
39750;SDS011;37579;51.074;17.004;2023-12-07T09:23:35;73.32;;;31.55;;
39750;SDS011;37579;51.074;17.004;2023-12-07T09:26:02;76.97;;;30.60;;
39750;SDS011;37579;51.074;17.004;2023-12-07T09:28:28;72.38;;;28.85;;
39750;SDS011;37579;51.074;17.004;2023-12-07T09:30:54;58.97;;;27.00;;
39750;SDS011;37579;51.074;17.004;2023-12-07T09:33:20;59.95;;;26.30;;
39750;SDS011;37579;51.074;17.004;2023-12-07T09:35:46;58.70;;;27.08;;
39750;SDS011;37579;51.074;17.004;2023-12-07T09:38:12;58.13;;;26.40;;
39750;SDS011;37579;51.074;17.004;2023-12-07T09:40:38;59.78;;;26.25;;
39750;SDS011;37579;51.074;17.004;2023-12-07T09:43:04;56.03;;;25.27;;
39750;SDS011;37579;51.074;17.004;2023-12-07T09:45:30;57.55;;;25.83;;
39750;SDS011;37579;51.074;17.004;2023-12-07T09:47:56;60.45;;;25.48;;
39750;SDS011;37579;51.074;17.004;2023-12-07T09:50:23;52.45;;;24.50;;
39750;SDS011;37579;51.074;17.004;2023-12-07T09:52:51;52.20;;;23.67;;
39750;SDS011;37579;51.074;17.004;2023-12-07T09:55:19;48.20;;;23.73;;
39750;SDS011;37579;51.074;17.004;2023-12-07T09:57:45;45.65;;;21.73;;
39750;SDS011;37579;51.074;17.004;2023-12-07T10:00:11;49.30;;;22.90;;
39750;SDS011;37579;51.074;17.004;2023-12-07T10:02:40;49.92;;;23.25;;
39750;SDS011;37579;51.074;17.004;2023-12-07T10:05:14;49.00;;;22.83;;
39750;SDS011;37579;51.074;17.004;2023-12-07T10:07:45;44.45;;;22.90;;
39750;SDS011;37579;51.074;17.004;2023-12-07T10:10:16;40.63;;;21.15;;
39750;SDS011;37579;51.074;17.004;2023-12-07T10:12:46;42.17;;;21.38;;
39750;SDS011;37579;51.074;17.004;2023-12-07T10:15:22;47.90;;;22.25;;
39750;SDS011;37579;51.074;17.004;2023-12-07T10:17:50;38.08;;;21.27;;
39750;SDS011;37579;51.074;17.004;2023-12-07T10:20:17;44.50;;;21.10;;
39750;SDS011;37579;51.074;17.004;2023-12-07T10:22:47;40.80;;;19.98;;
39750;SDS011;37579;51.074;17.004;2023-12-07T10:25:13;43.30;;;19.80;;
39750;SDS011;37579;51.074;17.004;2023-12-07T10:27:42;40.40;;;19.92;;
39750;SDS011;37579;51.074;17.004;2023-12-07T10:30:09;41.42;;;19.02;;
39750;SDS011;37579;51.074;17.004;2023-12-07T10:32:36;42.22;;;19.10;;
39750;SDS011;37579;51.074;17.004;2023-12-07T10:35:06;36.97;;;18.30;;
39750;SDS011;37579;51.074;17.004;2023-12-07T10:37:33;36.92;;;19.40;;
39750;SDS011;37579;51.074;17.004;2023-12-07T10:39:58;38.95;;;19.63;;
39750;SDS011;37579;51.074;17.004;2023-12-07T10:42:24;37.08;;;18.40;;
39750;SDS011;37579;51.074;17.004;2023-12-07T10:44:54;34.33;;;18.35;;
39750;SDS011;37579;51.074;17.004;2023-12-07T10:47:24;35.15;;;17.40;;
39750;SDS011;37579;51.074;17.004;2023-12-07T10:49:52;32.65;;;17.20;;
39750;SDS011;37579;51.074;17.004;2023-12-07T10:52:23;33.50;;;17.80;;
39750;SDS011;37579;51.074;17.004;2023-12-07T10:54:50;34.63;;;18.25;;
39750;SDS011;37579;51.074;17.004;2023-12-07T10:57:25;37.38;;;18.25;;
39750;SDS011;37579;51.074;17.004;2023-12-07T10:59:52;38.70;;;19.08;;
39750;SDS011;37579;51.074;17.004;2023-12-07T11:02:20;34.35;;;18.42;;
39750;SDS011;37579;51.074;17.004;2023-12-07T11:04:47;34.15;;;18.77;;
39750;SDS011;37579;51.074;17.004;2023-12-07T11:07:16;33.95;;;19.50;;
39750;SDS011;37579;51.074;17.004;2023-12-07T11:09:47;33.55;;;19.10;;
39750;SDS011;37579;51.074;17.004;2023-12-07T11:12:31;35.33;;;20.73;;
39750;SDS011;37579;51.074;17.004;2023-12-07T11:15:02;33.00;;;18.65;;
39750;SDS011;37579;51.074;17.004;2023-12-07T11:17:28;36.65;;;20.13;;
39750;SDS011;37579;51.074;17.004;2023-12-07T11:19:54;35.85;;;20.52;;
39750;SDS011;37579;51.074;17.004;2023-12-07T11:22:20;30.25;;;19.02;;
39750;SDS011;37579;51.074;17.004;2023-12-07T11:24:57;33.38;;;20.13;;
39750;SDS011;37579;51.074;17.004;2023-12-07T11:27:28;30.48;;;18.55;;
39750;SDS011;37579;51.074;17.004;2023-12-07T11:29:57;32.25;;;18.85;;
39750;SDS011;37579;51.074;17.004;2023-12-07T11:32:26;32.35;;;20.02;;
39750;SDS011;37579;51.074;17.004;2023-12-07T11:34:52;31.73;;;18.83;;
39750;SDS011;37579;51.074;17.004;2023-12-07T11:37:19;33.33;;;19.40;;
39750;SDS011;37579;51.074;17.004;2023-12-07T11:39:45;31.00;;;19.70;;
39750;SDS011;37579;51.074;17.004;2023-12-07T11:42:11;31.25;;;18.65;;
39750;SDS011;37579;51.074;17.004;2023-12-07T11:44:40;32.70;;;19.92;;
39750;SDS011;37579;51.074;17.004;2023-12-07T11:47:07;30.45;;;20.00;;
39750;SDS011;37579;51.074;17.004;2023-12-07T11:49:34;32.38;;;17.67;;
39750;SDS011;37579;51.074;17.004;2023-12-07T11:52:00;29.52;;;18.15;;
39750;SDS011;37579;51.074;17.004;2023-12-07T11:54:37;30.40;;;17.60;;
39750;SDS011;37579;51.074;17.004;2023-12-07T11:57:03;27.95;;;17.05;;
39750;SDS011;37579;51.074;17.004;2023-12-07T11:59:29;27.50;;;16.23;;
39750;SDS011;37579;51.074;17.004;2023-12-07T12:01:58;26.70;;;15.85;;
39750;SDS011;37579;51.074;17.004;2023-12-07T12:04:24;25.65;;;16.00;;
39750;SDS011;37579;51.074;17.004;2023-12-07T12:06:50;24.15;;;14.00;;
39750;SDS011;37579;51.074;17.004;2023-12-07T12:09:16;24.95;;;14.85;;
39750;SDS011;37579;51.074;17.004;2023-12-07T12:11:48;25.52;;;15.38;;
39750;SDS011;37579;51.074;17.004;2023-12-07T12:14:18;24.47;;;14.60;;
39750;SDS011;37579;51.074;17.004;2023-12-07T12:16:44;23.65;;;14.35;;
39750;SDS011;37579;51.074;17.004;2023-12-07T12:19:11;26.08;;;15.48;;
39750;SDS011;37579;51.074;17.004;2023-12-07T12:21:38;23.85;;;13.68;;
39750;SDS011;37579;51.074;17.004;2023-12-07T12:24:05;20.50;;;13.32;;
39750;SDS011;37579;51.074;17.004;2023-12-07T12:26:33;25.42;;;13.48;;
39750;SDS011;37579;51.074;17.004;2023-12-07T12:28:59;22.48;;;13.57;;
39750;SDS011;37579;51.074;17.004;2023-12-07T12:31:26;24.98;;;12.68;;
39750;SDS011;37579;51.074;17.004;2023-12-07T12:33:53;21.17;;;11.95;;
39750;SDS011;37579;51.074;17.004;2023-12-07T12:36:19;21.27;;;12.60;;
39750;SDS011;37579;51.074;17.004;2023-12-07T12:38:52;21.77;;;12.00;;
39750;SDS011;37579;51.074;17.004;2023-12-07T12:41:18;23.88;;;12.60;;
39750;SDS011;37579;51.074;17.004;2023-12-07T12:43:45;20.23;;;11.13;;
39750;SDS011;37579;51.074;17.004;2023-12-07T12:46:11;19.92;;;11.95;;
39750;SDS011;37579;51.074;17.004;2023-12-07T12:48:57;18.25;;;10.93;;
39750;SDS011;37579;51.074;17.004;2023-12-07T12:51:29;18.05;;;10.43;;
39750;SDS011;37579;51.074;17.004;2023-12-07T12:53:59;19.60;;;11.55;;
39750;SDS011;37579;51.074;17.004;2023-12-07T12:56:27;19.33;;;10.65;;
39750;SDS011;37579;51.074;17.004;2023-12-07T12:58:55;19.02;;;11.45;;
39750;SDS011;37579;51.074;17.004;2023-12-07T13:01:22;19.92;;;11.93;;
39750;SDS011;37579;51.074;17.004;2023-12-07T13:03:48;23.33;;;11.38;;
39750;SDS011;37579;51.074;17.004;2023-12-07T13:06:14;20.38;;;11.85;;
39750;SDS011;37579;51.074;17.004;2023-12-07T13:08:44;20.50;;;11.70;;
39750;SDS011;37579;51.074;17.004;2023-12-07T13:11:17;20.73;;;11.27;;
39750;SDS011;37579;51.074;17.004;2023-12-07T13:13:44;20.50;;;10.50;;
39750;SDS011;37579;51.074;17.004;2023-12-07T13:16:12;17.88;;;11.10;;
39750;SDS011;37579;51.074;17.004;2023-12-07T13:18:40;19.52;;;11.13;;
39750;SDS011;37579;51.074;17.004;2023-12-07T13:21:06;20.30;;;10.82;;
39750;SDS011;37579;51.074;17.004;2023-12-07T13:23:32;18.88;;;10.52;;
39750;SDS011;37579;51.074;17.004;2023-12-07T13:25:57;16.50;;;10.63;;
39750;SDS011;37579;51.074;17.004;2023-12-07T13:28:23;16.40;;;9.77;;
39750;SDS011;37579;51.074;17.004;2023-12-07T13:30:49;16.67;;;10.13;;
39750;SDS011;37579;51.074;17.004;2023-12-07T13:33:15;16.95;;;9.98;;
39750;SDS011;37579;51.074;17.004;2023-12-07T13:35:41;16.42;;;9.90;;
39750;SDS011;37579;51.074;17.004;2023-12-07T13:38:06;15.85;;;10.05;;
39750;SDS011;37579;51.074;17.004;2023-12-07T13:40:32;15.82;;;9.10;;
39750;SDS011;37579;51.074;17.004;2023-12-07T13:42:58;15.98;;;9.05;;
39750;SDS011;37579;51.074;17.004;2023-12-07T13:45:24;15.45;;;10.20;;
39750;SDS011;37579;51.074;17.004;2023-12-07T13:47:49;18.30;;;9.60;;
39750;SDS011;37579;51.074;17.004;2023-12-07T13:50:16;14.95;;;9.70;;
39750;SDS011;37579;51.074;17.004;2023-12-07T13:52:42;16.48;;;9.88;;
39750;SDS011;37579;51.074;17.004;2023-12-07T13:55:08;17.67;;;10.25;;
39750;SDS011;37579;51.074;17.004;2023-12-07T13:57:34;15.95;;;9.82;;
39750;SDS011;37579;51.074;17.004;2023-12-07T14:00:00;15.98;;;8.95;;
39750;SDS011;37579;51.074;17.004;2023-12-07T14:02:26;14.52;;;9.48;;
39750;SDS011;37579;51.074;17.004;2023-12-07T14:04:53;17.13;;;9.55;;
39750;SDS011;37579;51.074;17.004;2023-12-07T14:07:20;17.85;;;9.25;;
39750;SDS011;37579;51.074;17.004;2023-12-07T14:09:50;14.40;;;9.07;;
39750;SDS011;37579;51.074;17.004;2023-12-07T14:12:17;14.85;;;8.52;;